Follow US:

Practice English Speaking&Listening with: 2/4/20 4:08 PM

Normal
(0)
Difficulty: 0

Time: Feb 4, 2020 4:08:44 PM Type: Normal Speed: 0.0 Lat.: 47.70908113 Lon.: -117.46997912

Time: Feb 4, 2020 4:08:45 PM Type: Normal Speed: 0.0 Lat.: 47.70902638 Lon.: -117.47007649

Time: Feb 4, 2020 4:08:46 PM Type: Normal Speed: 0.0 Lat.: 47.70900992 Lon.: -117.47010251

Time: Feb 4, 2020 4:08:47 PM Type: Normal Speed: 0.0 Lat.: 47.70899208 Lon.: -117.47013551

Time: Feb 4, 2020 4:08:49 PM Type: Normal Speed: 0.0 Lat.: 47.7090093 Lon.: -117.47011477

Time: Feb 4, 2020 4:08:51 PM Type: Normal Speed: 0.0 Lat.: 47.70902415 Lon.: -117.47009328

Time: Feb 4, 2020 4:08:52 PM Type: Normal Speed: 0.0 Lat.: 47.70902124 Lon.: -117.47011433

Time: Feb 4, 2020 4:08:53 PM Type: Normal Speed: 0.0 Lat.: 47.70902604 Lon.: -117.47015446

Time: Feb 4, 2020 4:08:54 PM Type: Normal Speed: 0.0 Lat.: 47.70902632 Lon.: -117.47017737

Time: Feb 4, 2020 4:08:55 PM Type: Normal Speed: 0.0 Lat.: 47.70904059 Lon.: -117.47020387

Time: Feb 4, 2020 4:08:56 PM Type: Normal Speed: 0.0 Lat.: 47.70905494 Lon.: -117.47019497

Time: Feb 4, 2020 4:09:07 PM Type: Normal Speed: 8.1 Lat.: 47.70902323 Lon.: -117.47018411

Time: Feb 4, 2020 4:09:08 PM Type: Normal Speed: 6.0 Lat.: 47.70898945 Lon.: -117.47018298

Time: Feb 4, 2020 4:09:09 PM Type: Normal Speed: 4.9 Lat.: 47.70897 Lon.: -117.47019304

Time: Feb 4, 2020 4:09:10 PM Type: Normal Speed: 5.4 Lat.: 47.70893869 Lon.: -117.47018345

Time: Feb 4, 2020 4:09:12 PM Type: Normal Speed: 7.7 Lat.: 47.70889557 Lon.: -117.4701896

Time: Feb 4, 2020 4:09:13 PM Type: Normal Speed: 6.0 Lat.: 47.70888751 Lon.: -117.47022544

Time: Feb 4, 2020 4:09:14 PM Type: Normal Speed: 3.3 Lat.: 47.70887967 Lon.: -117.47024251

Time: Feb 4, 2020 4:09:15 PM Type: Normal Speed: 4.2 Lat.: 47.70885555 Lon.: -117.47025752

Time: Feb 4, 2020 4:09:16 PM Type: Normal Speed: 5.4 Lat.: 47.70883057 Lon.: -117.47026213

Time: Feb 4, 2020 4:09:18 PM Type: Normal Speed: 4.5 Lat.: 47.70879261 Lon.: -117.47025828

Time: Feb 4, 2020 4:09:20 PM Type: Normal Speed: 7.4 Lat.: 47.70875546 Lon.: -117.47025121

Time: Feb 4, 2020 4:09:21 PM Type: Normal Speed: 3.3 Lat.: 47.70873581 Lon.: -117.47024893

Time: Feb 4, 2020 4:09:24 PM Type: Normal Speed: 8.6 Lat.: 47.70868007 Lon.: -117.47026097

Time: Feb 4, 2020 4:09:25 PM Type: Normal Speed: 4.7 Lat.: 47.70865616 Lon.: -117.47026673

Time: Feb 4, 2020 4:09:26 PM Type: Normal Speed: 5.3 Lat.: 47.70863754 Lon.: -117.47027275

Time: Feb 4, 2020 4:09:27 PM Type: Normal Speed: 5.3 Lat.: 47.70861871 Lon.: -117.47027833

Time: Feb 4, 2020 4:09:28 PM Type: Normal Speed: 4.0 Lat.: 47.70860356 Lon.: -117.47028639

Time: Feb 4, 2020 4:09:44 PM Type: Normal Speed: 0.0 Lat.: 47.70859609 Lon.: -117.47027718

Time: Feb 4, 2020 4:09:51 PM Type: Normal Speed: 6.2 Lat.: 47.70858767 Lon.: -117.47026119

Time: Feb 4, 2020 4:09:52 PM Type: Normal Speed: 5.5 Lat.: 47.7085908 Lon.: -117.47022644

Time: Feb 4, 2020 4:09:53 PM Type: Normal Speed: 7.7 Lat.: 47.70859941 Lon.: -117.47018115

Time: Feb 4, 2020 4:09:54 PM Type: Normal Speed: 8.7 Lat.: 47.70860649 Lon.: -117.47012491

Time: Feb 4, 2020 4:09:55 PM Type: Normal Speed: 13.1 Lat.: 47.70860798 Lon.: -117.4699799

Time: Feb 4, 2020 4:09:56 PM Type: Normal Speed: 13.2 Lat.: 47.70860879 Lon.: -117.46989272

Time: Feb 4, 2020 4:09:57 PM Type: Normal Speed: 11.9 Lat.: 47.70859445 Lon.: -117.4698162

Time: Feb 4, 2020 4:09:58 PM Type: Normal Speed: 10.2 Lat.: 47.70860826 Lon.: -117.4697654

Time: Feb 4, 2020 4:09:59 PM Type: Normal Speed: 8.9 Lat.: 47.70862075 Lon.: -117.46972725

Time: Feb 4, 2020 4:10:00 PM Type: Normal Speed: 8.1 Lat.: 47.70862668 Lon.: -117.46968238

Time: Feb 4, 2020 4:10:01 PM Type: Normal Speed: 6.9 Lat.: 47.70861681 Lon.: -117.4696331

Time: Feb 4, 2020 4:10:02 PM Type: Normal Speed: 6.0 Lat.: 47.70859511 Lon.: -117.46961423

Time: Feb 4, 2020 4:10:04 PM Type: Normal Speed: 3.3 Lat.: 47.70861004 Lon.: -117.46957545

Time: Feb 4, 2020 4:10:05 PM Type: Normal Speed: 1.7 Lat.: 47.70859854 Lon.: -117.46956218

Time: Feb 4, 2020 4:10:06 PM Type: Normal Speed: 1.7 Lat.: 47.70858724 Lon.: -117.46954202

Time: Feb 4, 2020 4:10:07 PM Type: Normal Speed: 3.3 Lat.: 47.70859471 Lon.: -117.46951435

Time: Feb 4, 2020 4:10:16 PM Type: Normal Speed: 7.4 Lat.: 47.70862467 Lon.: -117.46948295

Time: Feb 4, 2020 4:10:17 PM Type: Normal Speed: 7.8 Lat.: 47.70858323 Lon.: -117.46925002

Time: Feb 4, 2020 4:10:18 PM Type: Normal Speed: 7.4 Lat.: 47.70857912 Lon.: -117.46922596

Time: Feb 4, 2020 4:10:20 PM Type: Normal Speed: 10.4 Lat.: 47.70859067 Lon.: -117.46917562

Time: Feb 4, 2020 4:10:21 PM Type: Normal Speed: 12.1 Lat.: 47.70844924 Lon.: -117.46905808

Time: Feb 4, 2020 4:10:22 PM Type: Normal Speed: 14.3 Lat.: 47.70834144 Lon.: -117.46902083

Time: Feb 4, 2020 4:10:23 PM Type: Normal Speed: 14.4 Lat.: 47.70826104 Lon.: -117.4689891

Time: Feb 4, 2020 4:10:24 PM Type: Normal Speed: 16.4 Lat.: 47.7082009 Lon.: -117.46892796

Time: Feb 4, 2020 4:10:25 PM Type: Normal Speed: 17.8 Lat.: 47.70813007 Lon.: -117.46886892

Time: Feb 4, 2020 4:10:26 PM Type: Normal Speed: 17.6 Lat.: 47.70807272 Lon.: -117.46880477

Time: Feb 4, 2020 4:10:27 PM Type: Normal Speed: 20.3 Lat.: 47.7079988 Lon.: -117.46873495

Time: Feb 4, 2020 4:10:28 PM Type: Normal Speed: 21.3 Lat.: 47.70792457 Lon.: -117.46865368

Time: Feb 4, 2020 4:10:29 PM Type: Normal Speed: 20.7 Lat.: 47.70785577 Lon.: -117.46860842

Time: Feb 4, 2020 4:10:30 PM Type: Normal Speed: 22.7 Lat.: 47.70776218 Lon.: -117.46853036

Time: Feb 4, 2020 4:10:31 PM Type: Normal Speed: 20.8 Lat.: 47.70770862 Lon.: -117.46847962

Time: Feb 4, 2020 4:10:32 PM Type: Normal Speed: 23.2 Lat.: 47.70759812 Lon.: -117.46841712

Time: Feb 4, 2020 4:10:33 PM Type: Normal Speed: 25.0 Lat.: 47.70749188 Lon.: -117.46832745

Time: Feb 4, 2020 4:10:34 PM Type: Normal Speed: 24.8 Lat.: 47.70739364 Lon.: -117.46826411

Time: Feb 4, 2020 4:10:35 PM Type: Normal Speed: 26.2 Lat.: 47.70732205 Lon.: -117.46814613

Time: Feb 4, 2020 4:10:36 PM Type: Normal Speed: 26.2 Lat.: 47.70722635 Lon.: -117.46806229

Time: Feb 4, 2020 4:10:37 PM Type: Normal Speed: 25.9 Lat.: 47.70712044 Lon.: -117.46799371

Time: Feb 4, 2020 4:10:38 PM Type: Normal Speed: 23.1 Lat.: 47.70709031 Lon.: -117.46791304

Time: Feb 4, 2020 4:10:39 PM Type: Normal Speed: 22.7 Lat.: 47.70702755 Lon.: -117.46784637

Time: Feb 4, 2020 4:10:40 PM Type: Normal Speed: 20.5 Lat.: 47.70699944 Lon.: -117.46779287

Time: Feb 4, 2020 4:10:41 PM Type: Normal Speed: 18.2 Lat.: 47.70695823 Lon.: -117.46773473

Time: Feb 4, 2020 4:10:42 PM Type: Normal Speed: 20.5 Lat.: 47.70688773 Lon.: -117.46760094

Time: Feb 4, 2020 4:10:43 PM Type: Normal Speed: 20.0 Lat.: 47.70685127 Lon.: -117.46751347

Time: Feb 4, 2020 4:10:44 PM Type: Normal Speed: 20.0 Lat.: 47.7067906 Lon.: -117.46745745

Time: Feb 4, 2020 4:10:45 PM Type: Normal Speed: 20.5 Lat.: 47.70673408 Lon.: -117.46737405

Time: Feb 4, 2020 4:10:46 PM Type: Normal Speed: 21.5 Lat.: 47.70665441 Lon.: -117.46730479

Time: Feb 4, 2020 4:10:47 PM Type: Normal Speed: 23.2 Lat.: 47.70655419 Lon.: -117.46721575

Time: Feb 4, 2020 4:10:48 PM Type: Normal Speed: 24.9 Lat.: 47.7064571 Lon.: -117.46709773

Time: Feb 4, 2020 4:10:49 PM Type: Normal Speed: 24.1 Lat.: 47.70640593 Lon.: -117.46698804

Time: Feb 4, 2020 4:10:50 PM Type: Normal Speed: 25.6 Lat.: 47.70630054 Lon.: -117.46690498

Time: Feb 4, 2020 4:10:51 PM Type: Normal Speed: 23.8 Lat.: 47.70623211 Lon.: -117.46684319

Time: Feb 4, 2020 4:10:52 PM Type: Normal Speed: 26.6 Lat.: 47.7061165 Lon.: -117.46674649

Time: Feb 4, 2020 4:10:53 PM Type: Normal Speed: 25.0 Lat.: 47.70602977 Lon.: -117.46668734

Time: Feb 4, 2020 4:10:54 PM Type: Normal Speed: 20.7 Lat.: 47.70598636 Lon.: -117.4666269

Time: Feb 4, 2020 4:10:55 PM Type: Normal Speed: 20.0 Lat.: 47.7059248 Lon.: -117.46655475

Time: Feb 4, 2020 4:10:56 PM Type: Normal Speed: 22.2 Lat.: 47.70582804 Lon.: -117.46644978

Time: Feb 4, 2020 4:10:57 PM Type: Normal Speed: 22.0 Lat.: 47.70575429 Lon.: -117.46638021

Time: Feb 4, 2020 4:10:58 PM Type: Normal Speed: 19.5 Lat.: 47.70570911 Lon.: -117.46633552

Time: Feb 4, 2020 4:10:59 PM Type: Normal Speed: 18.3 Lat.: 47.70566765 Lon.: -117.46628201

Time: Feb 4, 2020 4:11:00 PM Type: Normal Speed: 18.7 Lat.: 47.70560502 Lon.: -117.4662172

Time: Feb 4, 2020 4:11:01 PM Type: Normal Speed: 20.0 Lat.: 47.70554038 Lon.: -117.46613123

Time: Feb 4, 2020 4:11:02 PM Type: Normal Speed: 21.1 Lat.: 47.7054735 Lon.: -117.46603494

Time: Feb 4, 2020 4:11:03 PM Type: Normal Speed: 21.0 Lat.: 47.70539215 Lon.: -117.46598642

Time: Feb 4, 2020 4:11:04 PM Type: Normal Speed: 24.6 Lat.: 47.70526819 Lon.: -117.46587718

Time: Feb 4, 2020 4:11:05 PM Type: Normal Speed: 22.7 Lat.: 47.70521679 Lon.: -117.46581413

Time: Feb 4, 2020 4:11:06 PM Type: Normal Speed: 23.8 Lat.: 47.70512947 Lon.: -117.46571969

Time: Feb 4, 2020 4:11:07 PM Type: Normal Speed: 22.8 Lat.: 47.70506947 Lon.: -117.46565816

Time: Feb 4, 2020 4:11:08 PM Type: Normal Speed: 22.1 Lat.: 47.70500131 Lon.: -117.46559358

Time: Feb 4, 2020 4:11:09 PM Type: Normal Speed: 24.0 Lat.: 47.70491181 Lon.: -117.46547865

Time: Feb 4, 2020 4:11:10 PM Type: Normal Speed: 20.4 Lat.: 47.70485967 Lon.: -117.46545117

Time: Feb 4, 2020 4:11:11 PM Type: Normal Speed: 21.7 Lat.: 47.70478133 Lon.: -117.46536419

Time: Feb 4, 2020 4:11:12 PM Type: Normal Speed: 21.5 Lat.: 47.70470019 Lon.: -117.46531508

Time: Feb 4, 2020 4:11:13 PM Type: Normal Speed: 21.3 Lat.: 47.70461513 Lon.: -117.46523357

Time: Feb 4, 2020 4:11:14 PM Type: Normal Speed: 20.8 Lat.: 47.70455737 Lon.: -117.46515731

Time: Feb 4, 2020 4:11:15 PM Type: Normal Speed: 21.2 Lat.: 47.70449168 Lon.: -117.465064

Time: Feb 4, 2020 4:11:16 PM Type: Normal Speed: 23.5 Lat.: 47.70439168 Lon.: -117.46497878

Time: Feb 4, 2020 4:11:17 PM Type: Normal Speed: 22.4 Lat.: 47.70433047 Lon.: -117.46491816

Time: Feb 4, 2020 4:11:18 PM Type: Normal Speed: 22.5 Lat.: 47.70424034 Lon.: -117.46485339

Time: Feb 4, 2020 4:11:19 PM Type: Normal Speed: 21.4 Lat.: 47.70417379 Lon.: -117.46478516

Time: Feb 4, 2020 4:11:20 PM Type: Normal Speed: 21.0 Lat.: 47.70412286 Lon.: -117.46473838

Time: Feb 4, 2020 4:11:21 PM Type: Normal Speed: 22.2 Lat.: 47.7040558 Lon.: -117.4646417

Time: Feb 4, 2020 4:11:22 PM Type: Normal Speed: 22.3 Lat.: 47.70398027 Lon.: -117.46456711

Time: Feb 4, 2020 4:11:23 PM Type: Normal Speed: 21.6 Lat.: 47.70391351 Lon.: -117.4644909

Time: Feb 4, 2020 4:11:24 PM Type: Normal Speed: 20.2 Lat.: 47.70385947 Lon.: -117.46442528

Time: Feb 4, 2020 4:11:25 PM Type: Normal Speed: 17.6 Lat.: 47.70383522 Lon.: -117.46439607

Time: Feb 4, 2020 4:11:26 PM Type: Normal Speed: 18.8 Lat.: 47.70376579 Lon.: -117.46432498

Time: Feb 4, 2020 4:11:27 PM Type: Normal Speed: 19.8 Lat.: 47.70369851 Lon.: -117.46423304

Time: Feb 4, 2020 4:11:28 PM Type: Normal Speed: 19.0 Lat.: 47.70365466 Lon.: -117.46416359

Time: Feb 4, 2020 4:11:29 PM Type: Normal Speed: 19.3 Lat.: 47.7035944 Lon.: -117.46408647

Time: Feb 4, 2020 4:11:30 PM Type: Normal Speed: 22.0 Lat.: 47.70349797 Lon.: -117.46398436

Time: Feb 4, 2020 4:11:31 PM Type: Normal Speed: 20.8 Lat.: 47.70345209 Lon.: -117.46391427

Time: Feb 4, 2020 4:11:32 PM Type: Normal Speed: 22.3 Lat.: 47.70336928 Lon.: -117.46383607

Time: Feb 4, 2020 4:11:33 PM Type: Normal Speed: 23.6 Lat.: 47.70328195 Lon.: -117.46374391

Time: Feb 4, 2020 4:11:34 PM Type: Normal Speed: 24.9 Lat.: 47.70318151 Lon.: -117.46366474

Time: Feb 4, 2020 4:11:35 PM Type: Normal Speed: 23.0 Lat.: 47.70314157 Lon.: -117.46357357

Time: Feb 4, 2020 4:11:36 PM Type: Normal Speed: 24.8 Lat.: 47.70302355 Lon.: -117.46349073

Time: Feb 4, 2020 4:11:37 PM Type: Normal Speed: 23.4 Lat.: 47.7029705 Lon.: -117.46338482

Time: Feb 4, 2020 4:11:38 PM Type: Normal Speed: 22.5 Lat.: 47.70291939 Lon.: -117.46328662

Time: Feb 4, 2020 4:11:39 PM Type: Normal Speed: 23.1 Lat.: 47.70283924 Lon.: -117.46318491

Time: Feb 4, 2020 4:11:40 PM Type: Normal Speed: 22.3 Lat.: 47.7027818 Lon.: -117.46312693

Time: Feb 4, 2020 4:11:41 PM Type: Normal Speed: 23.0 Lat.: 47.70269868 Lon.: -117.46301888

Time: Feb 4, 2020 4:11:42 PM Type: Normal Speed: 22.3 Lat.: 47.70264363 Lon.: -117.46292399

Time: Feb 4, 2020 4:11:43 PM Type: Normal Speed: 24.4 Lat.: 47.70254517 Lon.: -117.46283115

Time: Feb 4, 2020 4:11:44 PM Type: Normal Speed: 26.2 Lat.: 47.70244683 Lon.: -117.46271184

Time: Feb 4, 2020 4:11:45 PM Type: Normal Speed: 25.8 Lat.: 47.70235562 Lon.: -117.46261828

Time: Feb 4, 2020 4:11:46 PM Type: Normal Speed: 21.3 Lat.: 47.70232135 Lon.: -117.46255752

Time: Feb 4, 2020 4:11:47 PM Type: Normal Speed: 22.0 Lat.: 47.70225258 Lon.: -117.46246646

Time: Feb 4, 2020 4:11:48 PM Type: Normal Speed: 22.7 Lat.: 47.70216865 Lon.: -117.4623863

Time: Feb 4, 2020 4:11:49 PM Type: Normal Speed: 23.2 Lat.: 47.70209693 Lon.: -117.46228961

Time: Feb 4, 2020 4:11:50 PM Type: Normal Speed: 25.9 Lat.: 47.70199331 Lon.: -117.46217587

Time: Feb 4, 2020 4:11:51 PM Type: Normal Speed: 22.0 Lat.: 47.70195875 Lon.: -117.46211777

Time: Feb 4, 2020 4:11:52 PM Type: Normal Speed: 21.0 Lat.: 47.70189731 Lon.: -117.4620407

Time: Feb 4, 2020 4:11:53 PM Type: Normal Speed: 19.4 Lat.: 47.70183571 Lon.: -117.46197169

Time: Feb 4, 2020 4:11:54 PM Type: Normal Speed: 16.2 Lat.: 47.70179494 Lon.: -117.46194925

Time: Feb 4, 2020 4:11:55 PM Type: Normal Speed: 17.4 Lat.: 47.70171334 Lon.: -117.46188509

Time: Feb 4, 2020 4:11:56 PM Type: Normal Speed: 19.8 Lat.: 47.70162296 Lon.: -117.46179256

Time: Feb 4, 2020 4:11:57 PM Type: Normal Speed: 20.1 Lat.: 47.70155157 Lon.: -117.4617097

Time: Feb 4, 2020 4:11:58 PM Type: Normal Speed: 19.3 Lat.: 47.70147969 Lon.: -117.46166377

Time: Feb 4, 2020 4:11:59 PM Type: Normal Speed: 19.6 Lat.: 47.70140227 Lon.: -117.4615953

Time: Feb 4, 2020 4:12:00 PM Type: Normal Speed: 19.3 Lat.: 47.70132803 Lon.: -117.46152614

Time: Feb 4, 2020 4:12:01 PM Type: Normal Speed: 17.9 Lat.: 47.70128737 Lon.: -117.46145247

Time: Feb 4, 2020 4:12:02 PM Type: Normal Speed: 16.6 Lat.: 47.7012422 Lon.: -117.46136665

Time: Feb 4, 2020 4:12:03 PM Type: Normal Speed: 15.3 Lat.: 47.7012064 Lon.: -117.46130508

Time: Feb 4, 2020 4:12:04 PM Type: Normal Speed: 13.9 Lat.: 47.70117024 Lon.: -117.46125238

Time: Feb 4, 2020 4:12:05 PM Type: Normal Speed: 12.1 Lat.: 47.70112338 Lon.: -117.46119518

Time: Feb 4, 2020 4:12:06 PM Type: Normal Speed: 10.3 Lat.: 47.70109521 Lon.: -117.46114817

Time: Feb 4, 2020 4:12:07 PM Type: Normal Speed: 9.0 Lat.: 47.70106807 Lon.: -117.4611122

Time: Feb 4, 2020 4:12:08 PM Type: Normal Speed: 7.3 Lat.: 47.70104775 Lon.: -117.46108671

Time: Feb 4, 2020 4:12:09 PM Type: Normal Speed: 5.7 Lat.: 47.70104022 Lon.: -117.46107159

Time: Feb 4, 2020 4:12:10 PM Type: Normal Speed: 5.3 Lat.: 47.70102662 Lon.: -117.46104752

Time: Feb 4, 2020 4:12:11 PM Type: Normal Speed: 4.4 Lat.: 47.70101887 Lon.: -117.46103166

Time: Feb 4, 2020 4:12:12 PM Type: Normal Speed: 4.0 Lat.: 47.70100459 Lon.: -117.46102064

Time: Feb 4, 2020 4:12:15 PM Type: Normal Speed: 2.4 Lat.: 47.70099426 Lon.: -117.4609992

Time: Feb 4, 2020 4:12:16 PM Type: Normal Speed: 3.0 Lat.: 47.70098144 Lon.: -117.46098781

Time: Feb 4, 2020 4:12:17 PM Type: Normal Speed: 3.5 Lat.: 47.70096928 Lon.: -117.46097372

Time: Feb 4, 2020 4:12:18 PM Type: Normal Speed: 3.6 Lat.: 47.70095802 Lon.: -117.46095769

Time: Feb 4, 2020 4:12:19 PM Type: Normal Speed: 3.6 Lat.: 47.7009476 Lon.: -117.46094249

Time: Feb 4, 2020 4:12:20 PM Type: Normal Speed: 3.5 Lat.: 47.70093845 Lon.: -117.46092985

Time: Feb 4, 2020 4:12:21 PM Type: Normal Speed: 4.4 Lat.: 47.70092591 Lon.: -117.46091295

Time: Feb 4, 2020 4:12:22 PM Type: Normal Speed: 5.2 Lat.: 47.70090977 Lon.: -117.46089092

Time: Feb 4, 2020 4:12:23 PM Type: Normal Speed: 6.2 Lat.: 47.70088931 Lon.: -117.46086524

Time: Feb 4, 2020 4:12:24 PM Type: Normal Speed: 7.1 Lat.: 47.70086652 Lon.: -117.46083484

Time: Feb 4, 2020 4:12:25 PM Type: Normal Speed: 8.3 Lat.: 47.70084108 Lon.: -117.46080153

Time: Feb 4, 2020 4:12:26 PM Type: Normal Speed: 8.5 Lat.: 47.70081047 Lon.: -117.46076935

Time: Feb 4, 2020 4:12:27 PM Type: Normal Speed: 10.0 Lat.: 47.70077724 Lon.: -117.46073425

Time: Feb 4, 2020 4:12:28 PM Type: Normal Speed: 11.2 Lat.: 47.70071081 Lon.: -117.46068987

Time: Feb 4, 2020 4:12:29 PM Type: Normal Speed: 12.2 Lat.: 47.70067042 Lon.: -117.46065325

Time: Feb 4, 2020 4:12:30 PM Type: Normal Speed: 14.0 Lat.: 47.70063181 Lon.: -117.46060874

Time: Feb 4, 2020 4:12:31 PM Type: Normal Speed: 15.0 Lat.: 47.70058006 Lon.: -117.46055503

Time: Feb 4, 2020 4:12:32 PM Type: Normal Speed: 16.1 Lat.: 47.70051252 Lon.: -117.46048453

Time: Feb 4, 2020 4:12:33 PM Type: Normal Speed: 16.9 Lat.: 47.70047282 Lon.: -117.46040874

Time: Feb 4, 2020 4:12:34 PM Type: Normal Speed: 17.9 Lat.: 47.70042427 Lon.: -117.46034619

Time: Feb 4, 2020 4:12:35 PM Type: Normal Speed: 18.7 Lat.: 47.70035412 Lon.: -117.46028429

Time: Feb 4, 2020 4:12:36 PM Type: Normal Speed: 18.3 Lat.: 47.7002996 Lon.: -117.46023205

Time: Feb 4, 2020 4:12:37 PM Type: Normal Speed: 18.5 Lat.: 47.70026048 Lon.: -117.46015923

Time: Feb 4, 2020 4:12:38 PM Type: Normal Speed: 19.1 Lat.: 47.70019606 Lon.: -117.46011556

Time: Feb 4, 2020 4:12:39 PM Type: Normal Speed: 19.1 Lat.: 47.7001527 Lon.: -117.46003887

Time: Feb 4, 2020 4:12:40 PM Type: Normal Speed: 20.2 Lat.: 47.70009148 Lon.: -117.45996836

Time: Feb 4, 2020 4:12:41 PM Type: Normal Speed: 18.6 Lat.: 47.70006856 Lon.: -117.45990295

Time: Feb 4, 2020 4:12:42 PM Type: Normal Speed: 19.0 Lat.: 47.70000076 Lon.: -117.45982353

Time: Feb 4, 2020 4:12:43 PM Type: Normal Speed: 22.1 Lat.: 47.69990191 Lon.: -117.45973088

Time: Feb 4, 2020 4:12:44 PM Type: Normal Speed: 23.5 Lat.: 47.69982999 Lon.: -117.45961766

Time: Feb 4, 2020 4:12:45 PM Type: Normal Speed: 25.1 Lat.: 47.69973628 Lon.: -117.45950422

Time: Feb 4, 2020 4:12:46 PM Type: Normal Speed: 24.3 Lat.: 47.69967741 Lon.: -117.45942323

Time: Feb 4, 2020 4:12:47 PM Type: Normal Speed: 25.3 Lat.: 47.69957239 Lon.: -117.45933755

Time: Feb 4, 2020 4:12:48 PM Type: Normal Speed: 25.2 Lat.: 47.69947914 Lon.: -117.45926232

Time: Feb 4, 2020 4:12:49 PM Type: Normal Speed: 24.5 Lat.: 47.69941247 Lon.: -117.45918764

Time: Feb 4, 2020 4:12:50 PM Type: Normal Speed: 26.1 Lat.: 47.69932493 Lon.: -117.4590921

Time: Feb 4, 2020 4:12:51 PM Type: Normal Speed: 26.2 Lat.: 47.6992432 Lon.: -117.45899237

Time: Feb 4, 2020 4:12:52 PM Type: Normal Speed: 25.5 Lat.: 47.69917084 Lon.: -117.4589035

Time: Feb 4, 2020 4:12:53 PM Type: Normal Speed: 22.7 Lat.: 47.69913019 Lon.: -117.45885022

Time: Feb 4, 2020 4:12:54 PM Type: Normal Speed: 22.9 Lat.: 47.69905531 Lon.: -117.45873634

Time: Feb 4, 2020 4:12:55 PM Type: Normal Speed: 25.2 Lat.: 47.69894309 Lon.: -117.45865991

Time: Feb 4, 2020 4:12:56 PM Type: Normal Speed: 25.6 Lat.: 47.69886589 Lon.: -117.45854538

Time: Feb 4, 2020 4:12:57 PM Type: Normal Speed: 27.4 Lat.: 47.69875455 Lon.: -117.45842668

Time: Feb 4, 2020 4:12:58 PM Type: Normal Speed: 28.9 Lat.: 47.69865105 Lon.: -117.45830421

Time: Feb 4, 2020 4:12:59 PM Type: Normal Speed: 27.1 Lat.: 47.69851486 Lon.: -117.45830719

Time: Feb 4, 2020 4:13:00 PM Type: Normal Speed: 27.5 Lat.: 47.69841563 Lon.: -117.45821158

Time: Feb 4, 2020 4:13:01 PM Type: Normal Speed: 27.8 Lat.: 47.69831093 Lon.: -117.45811449

Time: Feb 4, 2020 4:13:02 PM Type: Normal Speed: 27.3 Lat.: 47.69822578 Lon.: -117.45801806

Time: Feb 4, 2020 4:13:03 PM Type: Normal Speed: 24.7 Lat.: 47.69816348 Lon.: -117.45792658

Time: Feb 4, 2020 4:13:04 PM Type: Normal Speed: 22.3 Lat.: 47.69810002 Lon.: -117.45786825

Time: Feb 4, 2020 4:13:05 PM Type: Normal Speed: 26.1 Lat.: 47.69796779 Lon.: -117.45776597

Time: Feb 4, 2020 4:13:06 PM Type: Normal Speed: 28.0 Lat.: 47.69786221 Lon.: -117.45765052

Time: Feb 4, 2020 4:13:07 PM Type: Normal Speed: 24.4 Lat.: 47.69780168 Lon.: -117.45761324

Time: Feb 4, 2020 4:13:08 PM Type: Normal Speed: 25.1 Lat.: 47.69770304 Lon.: -117.45752656

Time: Feb 4, 2020 4:13:09 PM Type: Normal Speed: 24.9 Lat.: 47.69761677 Lon.: -117.45745131

Time: Feb 4, 2020 4:13:10 PM Type: Normal Speed: 26.8 Lat.: 47.69754602 Lon.: -117.45729067

Time: Feb 4, 2020 4:13:11 PM Type: Normal Speed: 27.0 Lat.: 47.69747068 Lon.: -117.45714593

Time: Feb 4, 2020 4:13:12 PM Type: Normal Speed: 26.3 Lat.: 47.69739119 Lon.: -117.45705452

Time: Feb 4, 2020 4:13:13 PM Type: Normal Speed: 26.2 Lat.: 47.69732183 Lon.: -117.45696212

Time: Feb 4, 2020 4:13:14 PM Type: Normal Speed: 27.2 Lat.: 47.69723512 Lon.: -117.45686775

Time: Feb 4, 2020 4:13:15 PM Type: Normal Speed: 27.7 Lat.: 47.69711129 Lon.: -117.4568054

Time: Feb 4, 2020 4:13:16 PM Type: Normal Speed: 27.8 Lat.: 47.69703299 Lon.: -117.4566934

Time: Feb 4, 2020 4:13:17 PM Type: Normal Speed: 28.0 Lat.: 47.69694103 Lon.: -117.4565838

Time: Feb 4, 2020 4:13:18 PM Type: Normal Speed: 27.7 Lat.: 47.69686595 Lon.: -117.4564815

Time: Feb 4, 2020 4:13:19 PM Type: Normal Speed: 27.5 Lat.: 47.69678164 Lon.: -117.45637154

Time: Feb 4, 2020 4:13:20 PM Type: Normal Speed: 24.8 Lat.: 47.69673501 Lon.: -117.45627828

Time: Feb 4, 2020 4:13:21 PM Type: Normal Speed: 25.8 Lat.: 47.69664471 Lon.: -117.4561825

Time: Feb 4, 2020 4:13:22 PM Type: Normal Speed: 27.6 Lat.: 47.69653253 Lon.: -117.45609123

Time: Feb 4, 2020 4:13:23 PM Type: Normal Speed: 27.0 Lat.: 47.69645276 Lon.: -117.45599811

Time: Feb 4, 2020 4:13:24 PM Type: Normal Speed: 29.3 Lat.: 47.69633808 Lon.: -117.45588467

The Description of 2/4/20 4:08 PM